createdAt,value
2022-08-03T00:00:34.801Z,3.85
2022-08-03T00:02:36.430Z,3.40
2022-08-03T00:04:38.117Z,2.72
2022-08-03T00:06:39.790Z,2.63
2022-08-03T00:08:41.335Z,2.85
2022-08-03T00:10:43.109Z,3.08
2022-08-03T00:12:44.680Z,4.25
2022-08-03T00:14:46.353Z,2.45
2022-08-03T00:16:47.894Z,2.90
2022-08-03T00:18:49.544Z,3.15
2022-08-03T00:20:51.132Z,3.90
2022-08-03T00:22:52.760Z,2.60
2022-08-03T00:24:54.343Z,2.70
2022-08-03T00:26:55.981Z,3.47
2022-08-03T00:28:57.415Z,2.13
2022-08-03T00:30:59.053Z,2.95
2022-08-03T00:33:01.707Z,2.90
2022-08-03T00:35:08.078Z,2.65
2022-08-03T00:37:10.821Z,2.97
2022-08-03T00:39:12.256Z,3.38
2022-08-03T00:41:15.700Z,2.80
2022-08-03T00:43:17.628Z,2.50
2022-08-03T00:45:21.552Z,3.35
2022-08-03T00:47:23.099Z,2.80
2022-08-03T00:49:24.790Z,4.05
2022-08-03T00:51:27.076Z,2.72
2022-08-03T00:53:28.835Z,3.15
2022-08-03T00:55:31.037Z,3.75
2022-08-03T00:57:34.599Z,3.13
2022-08-03T00:59:38.362Z,3.15
2022-08-03T01:01:40.812Z,3.60
2022-08-03T01:03:42.586Z,2.85
2022-08-03T01:05:58.177Z,3.42
2022-08-03T01:08:11.945Z,2.92
2022-08-03T01:10:20.391Z,3.40
2022-08-03T01:12:34.967Z,2.70
2022-08-03T01:14:44.316Z,2.90
2022-08-03T01:16:45.863Z,3.38
2022-08-03T01:19:16.116Z,3.10
2022-08-03T01:21:47.806Z,2.88
2022-08-03T01:24:12.879Z,4.20
2022-08-03T01:26:36.196Z,2.85
2022-08-03T01:28:56.415Z,3.10
2022-08-03T01:31:04.094Z,3.00
2022-08-03T01:33:15.112Z,3.33
2022-08-03T01:35:20.105Z,3.70
2022-08-03T01:37:32.063Z,3.78
2022-08-03T01:39:37.872Z,3.28
2022-08-03T01:41:47.956Z,3.20
2022-08-03T01:44:28.231Z,2.78
2022-08-03T01:46:15.856Z,3.03
2022-08-03T01:48:18.633Z,6.13
2022-08-03T01:50:27.646Z,2.70
2022-08-03T01:52:31.545Z,3.65
2022-08-03T01:54:43.268Z,3.47
2022-08-03T01:56:46.630Z,3.20
2022-08-03T01:58:51.209Z,3.72
2022-08-03T02:00:55.986Z,3.40
2022-08-03T02:02:58.789Z,3.13
2022-08-03T02:05:03.122Z,3.17
2022-08-03T02:07:07.971Z,3.75
2022-08-03T02:09:09.807Z,3.05
2022-08-03T02:11:13.035Z,3.20
2022-08-03T02:13:16.981Z,3.40
2022-08-03T02:15:19.322Z,3.47
2022-08-03T02:17:39.779Z,4.05
2022-08-03T02:19:43.456Z,3.08
2022-08-03T02:21:57.448Z,3.05
2022-08-03T02:24:04.529Z,4.25
2022-08-03T02:26:10.989Z,3.80
2022-08-03T02:28:18.203Z,5.10
2022-08-03T02:30:20.784Z,3.45
2022-08-03T02:32:30.764Z,3.30
2022-08-03T02:34:35.006Z,3.10
2022-08-03T02:36:39.505Z,3.15
2022-08-03T02:38:43.889Z,3.25
2022-08-03T02:40:46.565Z,3.20
2022-08-03T02:42:51.919Z,3.45
2022-08-03T02:44:57.246Z,3.47
2022-08-03T02:47:03.432Z,3.28
2022-08-03T02:49:40.478Z,3.92
2022-08-03T02:51:31.078Z,3.55
2022-08-03T02:53:33.810Z,3.30
2022-08-03T02:55:36.339Z,3.08
2022-08-03T02:57:46.642Z,3.72
2022-08-03T02:59:49.045Z,3.95
2022-08-03T03:01:51.544Z,3.88
2022-08-03T03:03:55.402Z,4.45
2022-08-03T03:05:57.953Z,5.43
2022-08-03T03:08:02.484Z,5.03
2022-08-03T03:10:05.019Z,5.05
2022-08-03T03:12:09.566Z,4.50
2022-08-03T03:14:13.432Z,4.05
2022-08-03T03:16:16.416Z,5.03
2022-08-03T03:18:22.243Z,4.10
2022-08-03T03:20:30.134Z,3.47
2022-08-03T03:22:33.967Z,3.55
2022-08-03T03:24:38.014Z,3.20
2022-08-03T03:26:42.521Z,4.32
2022-08-03T03:28:44.626Z,3.50
2022-08-03T03:30:53.150Z,3.00
2022-08-03T03:32:55.709Z,3.00
2022-08-03T03:35:00.847Z,3.70
2022-08-03T03:37:02.714Z,3.50
2022-08-03T03:39:15.419Z,3.42
2022-08-03T03:41:17.819Z,3.50
2022-08-03T03:43:19.706Z,5.13
2022-08-03T03:45:21.922Z,3.85
2022-08-03T03:47:32.265Z,4.65
2022-08-03T03:49:34.984Z,3.38
2022-08-03T03:51:36.614Z,3.80
2022-08-03T03:53:38.254Z,3.75
2022-08-03T03:55:59.588Z,3.80
2022-08-03T03:58:04.073Z,3.83
2022-08-03T04:00:06.507Z,3.42
2022-08-03T04:02:09.777Z,7.00
2022-08-03T04:04:29.820Z,3.95
2022-08-03T04:06:50.488Z,3.63
2022-08-03T04:09:10.787Z,3.95
2022-08-03T04:11:20.878Z,11.45
2022-08-03T04:13:40.047Z,4.05
2022-08-03T04:15:42.516Z,2.95
2022-08-03T04:17:45.154Z,3.30
2022-08-03T04:19:53.731Z,3.55
2022-08-03T04:22:00.040Z,3.22
2022-08-03T04:24:04.214Z,4.22
2022-08-03T04:26:09.889Z,5.05
2022-08-03T04:28:29.745Z,3.28
2022-08-03T04:30:36.365Z,3.28
2022-08-03T04:32:42.916Z,3.40
2022-08-03T04:34:47.454Z,3.55
2022-08-03T04:36:52.282Z,3.85
2022-08-03T04:39:13.774Z,3.25
2022-08-03T04:41:16.879Z,3.50
2022-08-03T04:43:21.061Z,4.00
2022-08-03T04:45:23.423Z,4.88
2022-08-03T04:47:25.276Z,5.00
2022-08-03T04:49:27.338Z,7.57
2022-08-03T04:51:29.985Z,4.45
2022-08-03T04:53:31.565Z,4.05
2022-08-03T04:55:34.660Z,4.35
2022-08-03T04:57:36.216Z,3.83
2022-08-03T04:59:39.217Z,4.22
2022-08-03T05:01:42.555Z,4.47
2022-08-03T05:03:44.128Z,3.75
2022-08-03T05:05:49.670Z,3.83
2022-08-03T05:07:52.276Z,4.15
2022-08-03T05:10:01.599Z,3.78
2022-08-03T05:12:06.166Z,4.22
2022-08-03T05:14:07.738Z,3.65
2022-08-03T05:16:09.497Z,6.05
2022-08-03T05:18:14.095Z,4.05
2022-08-03T05:20:16.568Z,4.05
2022-08-03T05:22:21.556Z,3.97
2022-08-03T05:24:23.367Z,4.05
2022-08-03T05:26:25.129Z,4.30
2022-08-03T05:28:28.323Z,4.50
2022-08-03T05:30:34.081Z,4.15
2022-08-03T05:32:36.125Z,5.43
2022-08-03T05:34:38.718Z,3.80
2022-08-03T05:36:40.490Z,3.80
2022-08-03T05:38:42.033Z,4.90
2022-08-03T05:40:56.788Z,4.70
2022-08-03T05:42:59.753Z,4.95
2022-08-03T05:45:12.936Z,3.92
2022-08-03T05:47:15.065Z,5.15
2022-08-03T05:49:17.236Z,4.22
2022-08-03T05:51:19.065Z,3.97
2022-08-03T05:53:20.728Z,4.85
2022-08-03T05:55:22.340Z,3.88
2022-08-03T05:57:25.395Z,4.85
2022-08-03T05:59:38.170Z,3.50
2022-08-03T06:01:40.694Z,3.90
2022-08-03T06:03:42.593Z,3.45
2022-08-03T06:05:58.341Z,3.92
2022-08-03T06:08:02.351Z,3.60
2022-08-03T06:10:35.942Z,3.70
2022-08-03T06:12:26.777Z,3.17
2022-08-03T06:14:28.382Z,3.60
2022-08-03T06:16:30.153Z,4.22
2022-08-03T06:18:31.715Z,3.70
2022-08-03T06:20:33.746Z,3.50
2022-08-03T06:22:36.831Z,3.13
2022-08-03T06:24:53.465Z,2.92
2022-08-03T06:26:57.894Z,3.47
2022-08-03T06:28:59.653Z,3.20
2022-08-03T06:31:06.605Z,3.40
2022-08-03T06:33:08.396Z,2.97
2022-08-03T06:35:10.497Z,3.20
2022-08-03T06:37:12.027Z,2.95
2022-08-03T06:39:13.781Z,3.60
2022-08-03T06:41:15.334Z,3.42
2022-08-03T06:43:16.998Z,3.40
2022-08-03T06:45:18.853Z,2.75
2022-08-03T06:47:20.364Z,3.03
2022-08-03T06:49:22.256Z,3.25
2022-08-03T06:52:02.685Z,3.45
2022-08-03T06:53:45.449Z,2.83
2022-08-03T06:55:51.120Z,2.90
2022-08-03T06:57:55.976Z,3.55
2022-08-03T07:00:10.469Z,4.38
2022-08-03T07:02:18.298Z,3.03
2022-08-03T07:04:21.121Z,2.83
2022-08-03T07:06:22.784Z,4.10
2022-08-03T07:08:33.191Z,3.03
2022-08-03T07:10:36.306Z,3.08
2022-08-03T07:12:38.722Z,2.63
2022-08-03T07:15:02.571Z,2.83
2022-08-03T07:17:11.487Z,2.60
2022-08-03T07:19:13.683Z,2.92
2022-08-03T07:21:16.741Z,3.25
2022-08-03T07:23:19.346Z,3.55
2022-08-03T07:25:21.220Z,3.05
2022-08-03T07:27:22.888Z,2.92
2022-08-03T07:29:24.984Z,2.83
2022-08-03T07:31:26.617Z,3.35
2022-08-03T07:33:28.275Z,2.70
2022-08-03T07:35:30.021Z,2.80
2022-08-03T07:37:31.883Z,2.72
2022-08-03T07:39:33.608Z,2.78
2022-08-03T07:41:35.334Z,2.67
2022-08-03T07:43:36.791Z,2.60
2022-08-03T07:45:38.431Z,3.42
2022-08-03T07:47:40.082Z,3.17
2022-08-03T07:49:48.937Z,3.10
2022-08-03T07:52:10.501Z,2.60
2022-08-03T07:54:12.260Z,2.90
2022-08-03T07:56:14.221Z,2.65
2022-08-03T07:58:22.022Z,2.70
2022-08-03T08:00:25.370Z,3.92
2022-08-03T08:02:27.494Z,2.70
2022-08-03T08:04:29.035Z,2.40
2022-08-03T08:06:32.730Z,2.65
2022-08-03T08:08:34.437Z,2.60
2022-08-03T08:10:36.767Z,2.65
2022-08-03T08:12:40.063Z,2.63
2022-08-03T08:14:42.444Z,2.10
2022-08-03T08:16:44.144Z,3.47
2022-08-03T08:18:45.745Z,2.80
2022-08-03T08:20:47.790Z,2.33
2022-08-03T08:22:49.819Z,2.45
2022-08-03T08:24:53.093Z,3.65
2022-08-03T08:26:56.937Z,2.90
2022-08-03T08:28:58.517Z,2.75
2022-08-03T08:31:01.140Z,2.58
2022-08-03T08:33:02.716Z,2.38
2022-08-03T08:35:06.384Z,2.97
2022-08-03T08:37:07.937Z,3.33
2022-08-03T08:39:09.587Z,3.38
2022-08-03T08:41:12.606Z,2.63
2022-08-03T08:43:15.728Z,2.17
2022-08-03T08:45:18.842Z,2.20
2022-08-03T08:47:24.732Z,3.60
2022-08-03T08:49:28.161Z,2.38
2022-08-03T08:51:52.699Z,2.50
2022-08-03T08:53:53.886Z,2.65
2022-08-03T08:56:00.913Z,2.50
2022-08-03T08:58:06.338Z,2.45
2022-08-03T09:00:14.748Z,2.58
2022-08-03T09:02:16.641Z,2.60
2022-08-03T09:04:18.898Z,2.83
2022-08-03T09:06:21.767Z,3.08
2022-08-03T09:08:23.529Z,2.45
2022-08-03T09:10:25.060Z,2.42
2022-08-03T09:12:42.718Z,2.20
2022-08-03T09:15:00.799Z,2.20
2022-08-03T09:17:06.482Z,2.80
2022-08-03T09:19:16.201Z,2.40
2022-08-03T09:21:31.795Z,2.35
2022-08-03T09:24:01.613Z,2.08
2022-08-03T09:26:04.222Z,2.30
2022-08-03T09:28:14.123Z,2.25
2022-08-03T09:30:37.533Z,1.95
2022-08-03T09:32:39.480Z,2.05
2022-08-03T09:34:41.263Z,2.00
2022-08-03T09:36:50.990Z,1.98
2022-08-03T09:39:06.501Z,2.00
2022-08-03T09:41:18.466Z,1.90
2022-08-03T09:43:21.100Z,2.85
2022-08-03T09:45:29.960Z,2.20
2022-08-03T09:47:36.252Z,2.10
2022-08-03T09:49:41.061Z,2.30
2022-08-03T09:52:32.734Z,2.20
2022-08-03T09:54:07.593Z,1.90
2022-08-03T09:56:35.715Z,2.22
2022-08-03T09:58:34.289Z,1.80
2022-08-03T10:00:54.830Z,2.10
2022-08-03T10:03:05.087Z,2.10
2022-08-03T10:05:08.704Z,2.33
2022-08-03T10:07:11.468Z,2.05
2022-08-03T10:09:15.718Z,1.80
2022-08-03T10:11:30.973Z,1.80
2022-08-03T10:13:33.650Z,2.17
2022-08-03T10:16:23.555Z,1.80
2022-08-03T10:17:56.966Z,2.20
2022-08-03T10:20:00.261Z,1.88
2022-08-03T10:22:07.785Z,2.30
2022-08-03T10:24:11.034Z,1.83
2022-08-03T10:26:18.962Z,2.40
2022-08-03T10:28:21.709Z,1.90
2022-08-03T10:30:26.255Z,1.92
2022-08-03T10:32:31.716Z,1.70
2022-08-03T10:34:40.304Z,2.28
2022-08-03T10:36:47.652Z,1.58
2022-08-03T10:38:54.359Z,1.90
2022-08-03T10:40:59.059Z,1.67
2022-08-03T10:43:12.068Z,1.60
2022-08-03T10:45:36.371Z,1.88
2022-08-03T10:47:39.308Z,1.77
2022-08-03T10:49:42.717Z,1.90
2022-08-03T10:51:46.136Z,1.80
2022-08-03T10:53:54.767Z,1.65
2022-08-03T10:56:18.199Z,1.70
2022-08-03T10:58:37.049Z,1.73
2022-08-03T11:00:50.942Z,1.98
2022-08-03T11:03:06.505Z,1.60
2022-08-03T11:05:28.970Z,1.63
2022-08-03T11:07:30.540Z,1.70
2022-08-03T11:09:42.016Z,1.77
2022-08-03T11:11:46.619Z,2.53
2022-08-03T11:14:03.224Z,2.03
2022-08-03T11:16:21.926Z,2.65
2022-08-03T11:18:26.848Z,1.90
2022-08-03T11:20:47.537Z,1.95
2022-08-03T11:22:54.469Z,1.85
2022-08-03T11:24:57.302Z,2.42
2022-08-03T11:27:14.290Z,1.90
2022-08-03T11:29:30.044Z,1.90
2022-08-03T11:31:50.198Z,1.77
2022-08-03T11:34:06.263Z,1.70
2022-08-03T11:36:08.078Z,1.80
2022-08-03T11:38:11.434Z,1.83
2022-08-03T11:40:46.505Z,1.77
2022-08-03T11:42:48.236Z,1.60
2022-08-03T11:44:54.828Z,1.70
2022-08-03T11:46:57.819Z,1.83
2022-08-03T11:49:09.860Z,1.67
2022-08-03T11:51:29.741Z,1.50
2022-08-03T11:53:31.447Z,1.60
2022-08-03T11:55:33.395Z,1.67
2022-08-03T11:59:01.264Z,1.92
2022-08-03T11:59:58.718Z,1.63
2022-08-03T12:02:11.196Z,2.17
2022-08-03T12:04:12.974Z,3.53
2022-08-03T12:06:16.776Z,1.60
2022-08-03T12:08:31.170Z,2.50
2022-08-03T12:10:33.644Z,1.90
2022-08-03T12:12:35.685Z,2.10
2022-08-03T12:14:48.748Z,1.88
2022-08-03T12:16:53.594Z,2.38
2022-08-03T12:19:03.372Z,2.55
2022-08-03T12:21:09.755Z,1.90
2022-08-03T12:23:12.578Z,1.95
2022-08-03T12:25:38.657Z,1.83
2022-08-03T12:27:41.339Z,1.88
2022-08-03T12:29:43.423Z,2.65
2022-08-03T12:31:58.825Z,2.25
2022-08-03T12:34:04.280Z,1.98
2022-08-03T12:36:10.022Z,1.80
2022-08-03T12:38:12.833Z,1.95
2022-08-03T12:40:20.576Z,1.90
2022-08-03T12:42:35.455Z,1.60
2022-08-03T12:44:37.456Z,1.80
2022-08-03T12:46:47.023Z,1.67
2022-08-03T12:49:15.415Z,1.90
2022-08-03T12:51:17.400Z,3.47
2022-08-03T12:53:28.966Z,2.88
2022-08-03T12:55:56.221Z,1.75
2022-08-03T12:57:55.972Z,1.95
2022-08-03T13:00:21.704Z,1.83
2022-08-03T13:02:31.448Z,2.67
2022-08-03T13:04:35.686Z,2.22
2022-08-03T13:06:37.435Z,1.70
2022-08-03T13:08:39.151Z,1.80
2022-08-03T13:10:40.744Z,2.30
2022-08-03T13:12:48.191Z,1.77
2022-08-03T13:15:00.635Z,1.90
2022-08-03T13:17:02.656Z,4.18
2022-08-03T13:19:04.441Z,2.08
2022-08-03T13:21:06.113Z,2.05
2022-08-03T13:23:07.823Z,1.98
2022-08-03T13:25:17.767Z,1.90
2022-08-03T13:27:58.859Z,1.92
2022-08-03T13:29:43.078Z,1.95
2022-08-03T13:31:51.163Z,2.15
2022-08-03T13:33:52.942Z,1.80
2022-08-03T13:35:55.339Z,2.35
2022-08-03T13:37:57.941Z,2.22
2022-08-03T13:40:03.003Z,2.28
2022-08-03T13:42:06.270Z,2.13
2022-08-03T13:44:29.390Z,1.85
2022-08-03T13:46:29.782Z,2.03
2022-08-03T13:48:36.957Z,2.25
2022-08-03T13:50:42.955Z,2.75
2022-08-03T13:52:46.420Z,2.35
2022-08-03T13:54:48.058Z,1.77
2022-08-03T13:56:52.959Z,2.17
2022-08-03T13:58:54.903Z,1.85
2022-08-03T14:00:56.699Z,2.72
2022-08-03T14:03:16.398Z,1.77
2022-08-03T14:05:18.264Z,1.90
2022-08-03T14:07:20.322Z,1.80
2022-08-03T14:09:22.535Z,1.90
2022-08-03T14:11:24.177Z,1.90
2022-08-03T14:13:45.837Z,2.60
2022-08-03T14:15:50.183Z,2.20
2022-08-03T14:17:53.215Z,1.88
2022-08-03T14:19:55.050Z,2.00
2022-08-03T14:22:06.151Z,2.28
2022-08-03T14:24:08.462Z,2.85
2022-08-03T14:26:10.319Z,2.38
2022-08-03T14:28:12.554Z,3.58
2022-08-03T14:30:14.926Z,2.53
2022-08-03T14:32:16.498Z,2.53
2022-08-03T14:34:18.523Z,2.85
2022-08-03T14:36:20.316Z,2.60
2022-08-03T14:38:22.475Z,2.33
2022-08-03T14:40:24.238Z,2.35
2022-08-03T14:42:25.988Z,2.40
2022-08-03T14:44:27.889Z,3.53
2022-08-03T14:46:30.022Z,1.90
2022-08-03T14:50:31.596Z,2.45
2022-08-03T14:50:55.079Z,2.63
2022-08-03T14:52:57.289Z,2.35
2022-08-03T14:54:59.759Z,2.80
2022-08-03T14:57:01.313Z,3.92
2022-08-03T14:59:02.959Z,2.90
2022-08-03T15:02:03.119Z,2.55
2022-08-03T15:03:26.378Z,2.58
2022-08-03T15:05:28.359Z,3.75
2022-08-03T15:07:29.924Z,3.30
2022-08-03T15:09:31.902Z,3.15
2022-08-03T15:11:33.481Z,4.00
2022-08-03T15:13:35.195Z,4.13
2022-08-03T15:15:36.812Z,3.70
2022-08-03T15:17:38.516Z,2.70
2022-08-03T15:20:03.087Z,3.55
2022-08-03T15:22:06.554Z,2.65
2022-08-03T15:24:11.129Z,2.40
2022-08-03T15:26:32.734Z,3.53
2022-08-03T15:28:34.183Z,3.47
2022-08-03T15:30:39.004Z,3.67
2022-08-03T15:32:40.786Z,3.08
2022-08-03T15:34:50.407Z,3.83
2022-08-03T15:36:52.465Z,3.50
2022-08-03T15:38:54.174Z,3.75
2022-08-03T15:40:55.870Z,3.92
2022-08-03T15:43:00.476Z,3.50
2022-08-03T15:45:02.187Z,3.67
2022-08-03T15:47:03.877Z,3.78
2022-08-03T15:49:05.449Z,4.93
2022-08-03T15:51:08.166Z,3.80
2022-08-03T15:53:09.778Z,3.50
2022-08-03T15:55:15.806Z,3.92
2022-08-03T15:57:19.371Z,3.70
2022-08-03T15:59:20.988Z,3.33
2022-08-03T16:01:23.364Z,3.28
2022-08-03T16:03:25.867Z,2.88
2022-08-03T16:05:27.756Z,2.90
2022-08-03T16:08:02.914Z,3.15
2022-08-03T16:10:06.255Z,2.40
2022-08-03T16:12:15.578Z,2.40
2022-08-03T16:14:32.020Z,2.80
2022-08-03T16:16:40.869Z,2.88
2022-08-03T16:18:42.654Z,3.90
2022-08-03T16:20:45.227Z,4.40
2022-08-03T16:22:48.551Z,9.70
2022-08-03T16:24:51.185Z,9.52
2022-08-03T16:26:52.799Z,7.05
2022-08-03T16:28:54.453Z,7.15
2022-08-03T16:30:56.322Z,4.38
2022-08-03T16:32:57.970Z,5.70
2022-08-03T16:35:00.607Z,5.43
2022-08-03T16:37:22.098Z,5.53
2022-08-03T16:39:26.811Z,6.57
2022-08-03T16:41:28.606Z,8.68
2022-08-03T16:43:50.395Z,18.52
2022-08-03T16:45:52.133Z,22.58
2022-08-03T16:48:01.613Z,24.30
2022-08-03T16:50:14.287Z,22.40
2022-08-03T16:52:19.009Z,25.45
2022-08-03T16:54:21.513Z,54.22
2022-08-03T16:56:23.316Z,51.58
2022-08-03T16:58:41.450Z,76.43
2022-08-03T17:00:44.503Z,76.35
2022-08-03T17:02:52.185Z,69.53
2022-08-03T17:04:54.800Z,63.42
2022-08-03T17:06:56.513Z,62.17
2022-08-03T17:08:59.677Z,47.10
2022-08-03T17:11:01.417Z,32.00
2022-08-03T17:13:03.417Z,23.60
2022-08-03T17:15:10.654Z,13.45
2022-08-03T17:17:19.873Z,11.43
2022-08-03T17:19:23.983Z,9.20
2022-08-03T17:21:29.484Z,14.82
2022-08-03T17:23:57.543Z,13.25
2022-08-03T17:26:02.326Z,11.75
2022-08-03T17:28:48.393Z,12.20
2022-08-03T17:30:48.090Z,12.82
2022-08-03T17:32:56.883Z,9.85
2022-08-03T17:34:59.949Z,12.77
2022-08-03T17:37:04.522Z,13.38
2022-08-03T17:39:06.916Z,14.73
2022-08-03T17:41:11.234Z,14.32
2022-08-03T17:43:44.059Z,13.85
2022-08-03T17:45:52.613Z,13.45
2022-08-03T17:47:57.133Z,15.20
2022-08-03T17:50:25.275Z,15.05
2022-08-03T17:52:37.793Z,13.38
2022-08-03T17:55:06.863Z,14.35
2022-08-03T17:57:27.168Z,11.20
2022-08-03T17:59:51.643Z,12.05
2022-08-03T18:02:34.906Z,10.50
2022-08-03T18:04:41.717Z,10.48
2022-08-03T18:06:55.816Z,10.52
2022-08-03T18:09:04.928Z,11.23
2022-08-03T18:11:23.812Z,10.32
2022-08-03T18:13:57.727Z,8.95
2022-08-03T18:16:04.679Z,9.90
2022-08-03T18:18:10.889Z,9.93
2022-08-03T18:20:34.139Z,8.05
2022-08-03T18:22:34.750Z,9.48
2022-08-03T18:24:37.251Z,9.98
2022-08-03T18:26:40.662Z,7.03
2022-08-03T18:28:53.114Z,7.63
2022-08-03T18:30:55.343Z,8.00
2022-08-03T18:33:00.607Z,5.13
2022-08-03T18:35:04.218Z,3.83
2022-08-03T18:37:07.832Z,4.28
2022-08-03T18:39:11.064Z,3.63
2022-08-03T18:41:19.634Z,2.92
2022-08-03T18:43:46.575Z,2.85
2022-08-03T18:45:55.970Z,3.28
2022-08-03T18:48:20.117Z,2.60
2022-08-03T18:50:34.530Z,2.65
2022-08-03T18:52:57.682Z,2.45
2022-08-03T18:55:33.158Z,2.53
2022-08-03T18:57:49.356Z,3.35
2022-08-03T19:00:10.432Z,2.50
2022-08-03T19:02:35.347Z,2.22
2022-08-03T19:04:46.502Z,2.33
2022-08-03T19:06:49.070Z,2.47
2022-08-03T19:09:18.551Z,2.47
2022-08-03T19:12:12.553Z,2.50
2022-08-03T19:14:12.028Z,2.38
2022-08-03T19:16:21.027Z,2.15
2022-08-03T19:18:23.047Z,2.80
2022-08-03T19:20:30.782Z,3.72
2022-08-03T19:22:34.286Z,3.47
2022-08-03T19:24:39.893Z,2.53
2022-08-03T19:26:41.499Z,2.80
2022-08-03T19:28:43.307Z,2.60
2022-08-03T19:30:53.224Z,2.15
2022-08-03T19:32:55.825Z,2.47
2022-08-03T19:35:00.649Z,2.58
2022-08-03T19:37:03.627Z,2.65
2022-08-03T19:39:09.248Z,2.95
2022-08-03T19:41:14.898Z,4.57
2022-08-03T19:43:21.345Z,4.65
2022-08-03T19:46:04.916Z,4.60
2022-08-03T19:48:08.028Z,4.25
2022-08-03T19:50:14.357Z,6.10
2022-08-03T19:52:20.557Z,3.63
2022-08-03T19:54:32.374Z,4.00
2022-08-03T19:56:34.677Z,3.92
2022-08-03T19:58:37.421Z,4.18
2022-08-03T20:00:40.335Z,3.70
2022-08-03T20:02:50.975Z,3.75
2022-08-03T20:04:52.882Z,4.15
2022-08-03T20:06:57.479Z,4.97
2022-08-03T20:08:59.814Z,3.55
2022-08-03T20:11:02.106Z,3.50
2022-08-03T20:13:03.758Z,3.35
2022-08-03T20:15:06.572Z,3.28
2022-08-03T20:17:09.243Z,4.68
2022-08-03T20:19:14.115Z,3.33
2022-08-03T20:21:18.880Z,5.13
2022-08-03T20:23:20.976Z,3.30
2022-08-03T20:25:38.953Z,3.50
2022-08-03T20:28:08.134Z,3.13
2022-08-03T20:30:08.582Z,3.03
2022-08-03T20:32:10.323Z,3.22
2022-08-03T20:34:11.935Z,3.58
2022-08-03T20:36:19.443Z,3.13
2022-08-03T20:38:25.054Z,3.03
2022-08-03T20:40:29.098Z,3.05
2022-08-03T20:42:30.985Z,5.03
2022-08-03T20:44:32.775Z,2.90
2022-08-03T20:46:50.160Z,2.78
2022-08-03T20:48:57.554Z,5.00
2022-08-03T20:51:00.866Z,3.10
2022-08-03T20:53:03.126Z,4.78
2022-08-03T20:55:12.906Z,3.05
2022-08-03T20:57:17.016Z,4.72
2022-08-03T20:59:19.988Z,3.22
2022-08-03T21:01:27.824Z,3.95
2022-08-03T21:03:40.988Z,4.72
2022-08-03T21:05:57.058Z,2.80
2022-08-03T21:08:06.923Z,2.80
2022-08-03T21:10:11.070Z,3.22
2022-08-03T21:12:26.764Z,4.95
2022-08-03T21:14:39.206Z,3.35
2022-08-03T21:16:44.632Z,3.15
2022-08-03T21:18:50.325Z,3.90
2022-08-03T21:20:52.440Z,2.80
2022-08-03T21:22:56.251Z,2.92
2022-08-03T21:25:03.851Z,3.28
2022-08-03T21:27:06.347Z,4.07
2022-08-03T21:29:08.965Z,4.53
2022-08-03T21:31:11.178Z,3.42
2022-08-03T21:33:13.725Z,2.92
2022-08-03T21:35:16.156Z,3.05
2022-08-03T21:37:18.052Z,3.20
2022-08-03T21:39:19.985Z,3.42
2022-08-03T21:41:21.998Z,3.30
2022-08-03T21:43:23.917Z,3.00
2022-08-03T21:45:25.762Z,3.30
2022-08-03T21:47:27.797Z,4.15
2022-08-03T21:50:05.316Z,3.88
2022-08-03T21:51:58.062Z,3.20
2022-08-03T21:54:03.732Z,3.67
2022-08-03T21:56:08.548Z,3.25
2022-08-03T21:58:13.665Z,3.60
2022-08-03T22:00:17.996Z,2.97
2022-08-03T22:02:24.225Z,3.03
2022-08-03T22:04:50.241Z,3.58
2022-08-03T22:06:48.872Z,3.00
2022-08-03T22:08:52.774Z,3.95
2022-08-03T22:10:54.572Z,3.55
2022-08-03T22:12:56.281Z,3.40
2022-08-03T22:15:02.004Z,3.20
2022-08-03T22:17:06.214Z,2.90
2022-08-03T22:19:08.848Z,2.95
2022-08-03T22:21:13.099Z,4.82
2022-08-03T22:23:19.573Z,2.58
2022-08-03T22:25:30.030Z,2.45
2022-08-03T22:27:34.202Z,3.00
2022-08-03T22:29:39.720Z,3.08
2022-08-03T22:31:58.684Z,2.83
2022-08-03T22:34:01.146Z,2.90
2022-08-03T22:36:05.413Z,2.55
2022-08-03T22:38:09.044Z,2.97
2022-08-03T22:40:13.176Z,2.50
2022-08-03T22:42:14.769Z,2.88
2022-08-03T22:44:16.635Z,2.40
2022-08-03T22:46:21.664Z,2.67
2022-08-03T22:48:23.307Z,2.70
2022-08-03T22:50:32.562Z,2.90
2022-08-03T22:52:37.499Z,3.20
2022-08-03T22:54:39.193Z,3.20
2022-08-03T22:56:41.308Z,2.55
2022-08-03T22:58:42.953Z,3.05
2022-08-03T23:01:06.749Z,2.42
2022-08-03T23:03:09.726Z,3.60
2022-08-03T23:06:00.913Z,2.60
2022-08-03T23:07:40.587Z,2.60
2022-08-03T23:09:45.316Z,2.45
2022-08-03T23:11:48.279Z,2.60
2022-08-03T23:13:54.044Z,2.60
2022-08-03T23:15:58.309Z,3.03
2022-08-03T23:18:03.169Z,2.60
2022-08-03T23:20:08.271Z,3.28
2022-08-03T23:22:28.605Z,2.67
2022-08-03T23:24:38.526Z,2.65
2022-08-03T23:26:41.180Z,2.50
2022-08-03T23:28:46.721Z,2.60
2022-08-03T23:30:51.548Z,2.95
2022-08-03T23:32:54.871Z,2.40
2022-08-03T23:35:17.798Z,3.80
2022-08-03T23:37:20.537Z,2.70
2022-08-03T23:39:24.102Z,2.92
2022-08-03T23:41:25.848Z,3.33
2022-08-03T23:43:44.811Z,3.38
2022-08-03T23:45:57.157Z,3.00
2022-08-03T23:47:58.755Z,3.13
2022-08-03T23:50:00.380Z,2.80
2022-08-03T23:52:24.260Z,3.00
2022-08-03T23:54:52.152Z,2.67
2022-08-03T23:57:25.006Z,2.83
2022-08-03T23:59:46.961Z,2.85
